Terminal Aerodrome Forecast
Issued by NWS

Home | Current Version | Previous Version | Text Only | Print | Product List | Glossary On
Versions: 1 2 3 4 5 6 7 8 9 10 11 12 13 14 15 16 17 18 19
000
FTUS43 KGRB 070151 AAA
TAFCWA
TAF AMD
KCWA 070151Z 0702/0724 34009G17KT 5SM FU BKN012
     FM070500 33008KT P6SM SCT006 OVC012
     FM071400 35010KT P6SM SCT025=

USA.gov is the U.S. government's official web portal to all federal, state and local government web resources and services.